sensor_id;sensor_type;location;lat;lon;timestamp;temperature;humidity
4487;DHT22;2256;48.740;9.106;2023-07-31T00:00:08;14.90;99.90
4487;DHT22;2256;48.740;9.106;2023-07-31T00:02:35;14.90;99.90
4487;DHT22;2256;48.740;9.106;2023-07-31T00:05:02;14.80;99.90
4487;DHT22;2256;48.740;9.106;2023-07-31T00:07:31;14.70;99.90
4487;DHT22;2256;48.740;9.106;2023-07-31T00:09:57;14.70;99.90
4487;DHT22;2256;48.740;9.106;2023-07-31T00:12:24;14.70;99.90
4487;DHT22;2256;48.740;9.106;2023-07-31T00:14:51;14.70;99.90
4487;DHT22;2256;48.740;9.106;2023-07-31T00:17:18;14.70;99.90
4487;DHT22;2256;48.740;9.106;2023-07-31T00:19:44;14.60;99.90
4487;DHT22;2256;48.740;9.106;2023-07-31T00:22:14;14.70;99.90
4487;DHT22;2256;48.740;9.106;2023-07-31T00:24:42;14.60;99.90
4487;DHT22;2256;48.740;9.106;2023-07-31T00:27:09;14.60;99.90
4487;DHT22;2256;48.740;9.106;2023-07-31T00:29:36;14.60;99.90
4487;DHT22;2256;48.740;9.106;2023-07-31T00:32:03;14.70;99.90
4487;DHT22;2256;48.740;9.106;2023-07-31T00:34:39;14.60;99.90
4487;DHT22;2256;48.740;9.106;2023-07-31T00:37:06;14.60;99.90
4487;DHT22;2256;48.740;9.106;2023-07-31T00:39:33;14.70;99.90
4487;DHT22;2256;48.740;9.106;2023-07-31T00:42:02;14.70;99.90
4487;DHT22;2256;48.740;9.106;2023-07-31T00:44:29;14.70;99.90
4487;DHT22;2256;48.740;9.106;2023-07-31T00:46:56;14.80;99.90
4487;DHT22;2256;48.740;9.106;2023-07-31T00:49:23;14.70;99.90
4487;DHT22;2256;48.740;9.106;2023-07-31T00:51:50;14.50;99.90
4487;DHT22;2256;48.740;9.106;2023-07-31T00:54:17;14.50;99.90
4487;DHT22;2256;48.740;9.106;2023-07-31T00:56:45;14.50;99.90
4487;DHT22;2256;48.740;9.106;2023-07-31T00:59:15;14.50;99.90
4487;DHT22;2256;48.740;9.106;2023-07-31T01:01:44;14.60;99.90
4487;DHT22;2256;48.740;9.106;2023-07-31T01:04:11;14.70;99.90
4487;DHT22;2256;48.740;9.106;2023-07-31T01:06:43;14.60;99.90
4487;DHT22;2256;48.740;9.106;2023-07-31T01:09:18;14.60;99.90
4487;DHT22;2256;48.740;9.106;2023-07-31T01:11:49;14.70;99.90
4487;DHT22;2256;48.740;9.106;2023-07-31T01:14:19;14.60;99.90
4487;DHT22;2256;48.740;9.106;2023-07-31T01:16:46;14.60;99.90
4487;DHT22;2256;48.740;9.106;2023-07-31T01:19:14;14.50;99.90
4487;DHT22;2256;48.740;9.106;2023-07-31T01:21:58;14.50;99.90
4487;DHT22;2256;48.740;9.106;2023-07-31T01:24:31;14.50;99.90
4487;DHT22;2256;48.740;9.106;2023-07-31T01:27:07;14.50;99.90
4487;DHT22;2256;48.740;9.106;2023-07-31T01:29:42;14.50;99.90
4487;DHT22;2256;48.740;9.106;2023-07-31T01:32:11;14.50;99.90
4487;DHT22;2256;48.740;9.106;2023-07-31T01:34:39;14.50;99.90
4487;DHT22;2256;48.740;9.106;2023-07-31T01:37:08;14.50;99.90
4487;DHT22;2256;48.740;9.106;2023-07-31T01:39:34;14.50;99.90
4487;DHT22;2256;48.740;9.106;2023-07-31T01:42:02;14.50;99.90
4487;DHT22;2256;48.740;9.106;2023-07-31T01:44:29;14.40;99.90
4487;DHT22;2256;48.740;9.106;2023-07-31T01:46:56;14.50;99.90
4487;DHT22;2256;48.740;9.106;2023-07-31T01:49:24;14.60;99.90
4487;DHT22;2256;48.740;9.106;2023-07-31T01:51:51;14.40;99.90
4487;DHT22;2256;48.740;9.106;2023-07-31T01:54:17;14.30;99.90
4487;DHT22;2256;48.740;9.106;2023-07-31T01:56:44;14.40;99.90
4487;DHT22;2256;48.740;9.106;2023-07-31T01:59:12;14.40;99.90
4487;DHT22;2256;48.740;9.106;2023-07-31T02:01:39;14.30;99.90
4487;DHT22;2256;48.740;9.106;2023-07-31T02:04:05;14.40;99.90
4487;DHT22;2256;48.740;9.106;2023-07-31T02:06:32;14.40;99.90
4487;DHT22;2256;48.740;9.106;2023-07-31T02:08:59;14.30;99.90
4487;DHT22;2256;48.740;9.106;2023-07-31T02:11:25;14.30;99.90
4487;DHT22;2256;48.740;9.106;2023-07-31T02:13:52;14.30;99.90
4487;DHT22;2256;48.740;9.106;2023-07-31T02:16:20;14.30;99.90
4487;DHT22;2256;48.740;9.106;2023-07-31T02:18:47;14.20;99.90
4487;DHT22;2256;48.740;9.106;2023-07-31T02:21:14;14.10;99.90
4487;DHT22;2256;48.740;9.106;2023-07-31T02:23:40;14.20;99.90
4487;DHT22;2256;48.740;9.106;2023-07-31T02:26:07;14.30;99.90
4487;DHT22;2256;48.740;9.106;2023-07-31T02:28:33;14.40;99.90
4487;DHT22;2256;48.740;9.106;2023-07-31T02:30:59;14.20;99.90
4487;DHT22;2256;48.740;9.106;2023-07-31T02:33:27;14.30;99.90
4487;DHT22;2256;48.740;9.106;2023-07-31T02:35:54;14.20;99.90
4487;DHT22;2256;48.740;9.106;2023-07-31T02:38:21;14.20;99.90
4487;DHT22;2256;48.740;9.106;2023-07-31T02:40:48;14.20;99.90
4487;DHT22;2256;48.740;9.106;2023-07-31T02:43:14;14.20;99.90
4487;DHT22;2256;48.740;9.106;2023-07-31T02:45:41;14.20;99.90
4487;DHT22;2256;48.740;9.106;2023-07-31T02:48:08;14.30;99.90
4487;DHT22;2256;48.740;9.106;2023-07-31T02:50:36;14.20;99.90
4487;DHT22;2256;48.740;9.106;2023-07-31T02:53:02;14.10;99.90
4487;DHT22;2256;48.740;9.106;2023-07-31T02:55:29;14.20;99.90
4487;DHT22;2256;48.740;9.106;2023-07-31T02:57:56;14.20;99.90
4487;DHT22;2256;48.740;9.106;2023-07-31T03:00:23;14.10;99.90
4487;DHT22;2256;48.740;9.106;2023-07-31T03:02:50;14.10;99.90
4487;DHT22;2256;48.740;9.106;2023-07-31T03:05:17;14.00;99.90
4487;DHT22;2256;48.740;9.106;2023-07-31T03:07:45;14.10;99.90
4487;DHT22;2256;48.740;9.106;2023-07-31T03:10:11;14.10;99.90
4487;DHT22;2256;48.740;9.106;2023-07-31T03:12:38;14.00;99.90
4487;DHT22;2256;48.740;9.106;2023-07-31T03:15:06;14.00;99.90
4487;DHT22;2256;48.740;9.106;2023-07-31T03:17:32;13.90;99.90
4487;DHT22;2256;48.740;9.106;2023-07-31T03:19:59;13.90;99.90
4487;DHT22;2256;48.740;9.106;2023-07-31T03:22:26;14.00;99.90
4487;DHT22;2256;48.740;9.106;2023-07-31T03:24:54;14.00;99.90
4487;DHT22;2256;48.740;9.106;2023-07-31T03:27:21;14.10;99.90
4487;DHT22;2256;48.740;9.106;2023-07-31T03:29:47;14.10;99.90
4487;DHT22;2256;48.740;9.106;2023-07-31T03:32:15;14.00;99.90
4487;DHT22;2256;48.740;9.106;2023-07-31T03:34:41;14.00;99.90
4487;DHT22;2256;48.740;9.106;2023-07-31T03:37:08;14.00;99.90
4487;DHT22;2256;48.740;9.106;2023-07-31T03:39:35;14.00;99.90
4487;DHT22;2256;48.740;9.106;2023-07-31T03:42:03;14.00;99.90
4487;DHT22;2256;48.740;9.106;2023-07-31T03:44:30;14.00;99.90
4487;DHT22;2256;48.740;9.106;2023-07-31T03:46:57;14.10;99.90
4487;DHT22;2256;48.740;9.106;2023-07-31T03:49:24;14.20;99.90
4487;DHT22;2256;48.740;9.106;2023-07-31T03:51:50;14.30;99.90
4487;DHT22;2256;48.740;9.106;2023-07-31T03:54:17;14.30;99.90
4487;DHT22;2256;48.740;9.106;2023-07-31T03:56:44;14.40;99.90
4487;DHT22;2256;48.740;9.106;2023-07-31T03:59:12;14.50;99.90
4487;DHT22;2256;48.740;9.106;2023-07-31T04:01:38;14.60;99.90
4487;DHT22;2256;48.740;9.106;2023-07-31T04:04:05;14.60;99.90
4487;DHT22;2256;48.740;9.106;2023-07-31T04:06:32;14.60;99.90
4487;DHT22;2256;48.740;9.106;2023-07-31T04:08:58;14.80;99.90
4487;DHT22;2256;48.740;9.106;2023-07-31T04:11:25;14.90;99.90
4487;DHT22;2256;48.740;9.106;2023-07-31T04:13:52;15.00;99.90
4487;DHT22;2256;48.740;9.106;2023-07-31T04:16:20;15.10;99.90
4487;DHT22;2256;48.740;9.106;2023-07-31T04:18:47;15.00;99.90
4487;DHT22;2256;48.740;9.106;2023-07-31T04:21:14;15.10;99.90
4487;DHT22;2256;48.740;9.106;2023-07-31T04:23:40;15.20;99.90
4487;DHT22;2256;48.740;9.106;2023-07-31T04:26:07;15.30;99.90
4487;DHT22;2256;48.740;9.106;2023-07-31T04:28:34;15.30;99.90
4487;DHT22;2256;48.740;9.106;2023-07-31T04:31:01;15.20;99.90
4487;DHT22;2256;48.740;9.106;2023-07-31T04:33:29;15.40;99.90
4487;DHT22;2256;48.740;9.106;2023-07-31T04:35:55;15.50;99.90
4487;DHT22;2256;48.740;9.106;2023-07-31T04:38:22;15.40;99.90
4487;DHT22;2256;48.740;9.106;2023-07-31T04:40:49;15.60;99.90
4487;DHT22;2256;48.740;9.106;2023-07-31T04:43:15;15.70;99.90
4487;DHT22;2256;48.740;9.106;2023-07-31T04:45:44;15.80;99.90
4487;DHT22;2256;48.740;9.106;2023-07-31T04:48:12;15.90;99.90
4487;DHT22;2256;48.740;9.106;2023-07-31T04:50:40;15.90;99.90
4487;DHT22;2256;48.740;9.106;2023-07-31T04:53:07;15.90;99.90
4487;DHT22;2256;48.740;9.106;2023-07-31T04:55:33;15.90;99.90
4487;DHT22;2256;48.740;9.106;2023-07-31T04:58:00;15.80;99.90
4487;DHT22;2256;48.740;9.106;2023-07-31T05:00:27;15.90;99.90
4487;DHT22;2256;48.740;9.106;2023-07-31T05:02:53;15.90;99.90
4487;DHT22;2256;48.740;9.106;2023-07-31T05:05:20;15.90;99.90
4487;DHT22;2256;48.740;9.106;2023-07-31T05:07:48;16.00;99.90
4487;DHT22;2256;48.740;9.106;2023-07-31T05:10:15;16.00;99.90
4487;DHT22;2256;48.740;9.106;2023-07-31T05:12:42;16.00;99.90
4487;DHT22;2256;48.740;9.106;2023-07-31T05:15:09;16.00;99.90
4487;DHT22;2256;48.740;9.106;2023-07-31T05:17:36;16.10;99.90
4487;DHT22;2256;48.740;9.106;2023-07-31T05:20:03;16.20;99.90
4487;DHT22;2256;48.740;9.106;2023-07-31T05:22:30;16.20;99.90
4487;DHT22;2256;48.740;9.106;2023-07-31T05:24:58;16.30;99.90
4487;DHT22;2256;48.740;9.106;2023-07-31T05:27:25;16.30;99.90
4487;DHT22;2256;48.740;9.106;2023-07-31T05:29:52;16.30;99.90
4487;DHT22;2256;48.740;9.106;2023-07-31T05:32:18;16.30;99.90
4487;DHT22;2256;48.740;9.106;2023-07-31T05:34:45;16.40;99.90
4487;DHT22;2256;48.740;9.106;2023-07-31T05:37:12;16.50;99.90
4487;DHT22;2256;48.740;9.106;2023-07-31T05:39:38;16.70;99.90
4487;DHT22;2256;48.740;9.106;2023-07-31T05:42:06;16.90;99.90
4487;DHT22;2256;48.740;9.106;2023-07-31T05:44:33;17.10;99.90
4487;DHT22;2256;48.740;9.106;2023-07-31T05:47:00;17.40;99.90
4487;DHT22;2256;48.740;9.106;2023-07-31T05:49:27;17.50;99.90
4487;DHT22;2256;48.740;9.106;2023-07-31T05:51:53;17.70;99.90
4487;DHT22;2256;48.740;9.106;2023-07-31T05:54:20;17.80;99.90
4487;DHT22;2256;48.740;9.106;2023-07-31T05:56:47;17.90;99.90
4487;DHT22;2256;48.740;9.106;2023-07-31T05:59:16;18.00;99.90
4487;DHT22;2256;48.740;9.106;2023-07-31T06:01:43;18.10;99.90
4487;DHT22;2256;48.740;9.106;2023-07-31T06:04:09;18.20;99.90
4487;DHT22;2256;48.740;9.106;2023-07-31T06:06:36;18.20;99.90
4487;DHT22;2256;48.740;9.106;2023-07-31T06:09:03;18.20;99.90
4487;DHT22;2256;48.740;9.106;2023-07-31T06:11:29;18.40;99.90
4487;DHT22;2256;48.740;9.106;2023-07-31T06:13:56;18.40;99.90
4487;DHT22;2256;48.740;9.106;2023-07-31T06:16:25;18.40;99.90
4487;DHT22;2256;48.740;9.106;2023-07-31T06:18:52;18.40;99.90
4487;DHT22;2256;48.740;9.106;2023-07-31T06:21:19;18.50;99.90
4487;DHT22;2256;48.740;9.106;2023-07-31T06:23:46;18.60;99.90
4487;DHT22;2256;48.740;9.106;2023-07-31T06:26:12;18.60;99.90
4487;DHT22;2256;48.740;9.106;2023-07-31T06:28:40;18.70;99.90
4487;DHT22;2256;48.740;9.106;2023-07-31T06:31:06;18.80;99.90
4487;DHT22;2256;48.740;9.106;2023-07-31T06:33:34;19.00;99.90
4487;DHT22;2256;48.740;9.106;2023-07-31T06:36:01;19.10;99.90
4487;DHT22;2256;48.740;9.106;2023-07-31T06:38:27;19.20;99.90
4487;DHT22;2256;48.740;9.106;2023-07-31T06:40:54;19.10;99.90
4487;DHT22;2256;48.740;9.106;2023-07-31T06:43:21;19.20;99.90
4487;DHT22;2256;48.740;9.106;2023-07-31T06:45:48;19.40;99.90
4487;DHT22;2256;48.740;9.106;2023-07-31T06:48:16;19.70;99.90
4487;DHT22;2256;48.740;9.106;2023-07-31T06:50:44;20.10;99.90
4487;DHT22;2256;48.740;9.106;2023-07-31T06:53:11;21.00;99.90
4487;DHT22;2256;48.740;9.106;2023-07-31T06:55:38;21.80;99.80
4487;DHT22;2256;48.740;9.106;2023-07-31T06:58:04;22.40;99.30
4487;DHT22;2256;48.740;9.106;2023-07-31T07:00:31;22.40;99.00
4487;DHT22;2256;48.740;9.106;2023-07-31T07:02:58;22.20;98.50
4487;DHT22;2256;48.740;9.106;2023-07-31T07:05:25;22.10;98.20
4487;DHT22;2256;48.740;9.106;2023-07-31T07:07:53;22.40;98.50
4487;DHT22;2256;48.740;9.106;2023-07-31T07:10:20;22.70;97.80
4487;DHT22;2256;48.740;9.106;2023-07-31T07:12:47;22.70;97.00
4487;DHT22;2256;48.740;9.106;2023-07-31T07:15:14;22.50;97.20
4487;DHT22;2256;48.740;9.106;2023-07-31T07:17:41;22.80;97.10
4487;DHT22;2256;48.740;9.106;2023-07-31T07:20:08;23.60;96.20
4487;DHT22;2256;48.740;9.106;2023-07-31T07:22:35;24.00;95.40
4487;DHT22;2256;48.740;9.106;2023-07-31T07:25:04;24.30;95.20
4487;DHT22;2256;48.740;9.106;2023-07-31T07:27:31;24.30;94.80
4487;DHT22;2256;48.740;9.106;2023-07-31T07:29:57;24.20;94.70
4487;DHT22;2256;48.740;9.106;2023-07-31T07:32:24;23.80;94.90
4487;DHT22;2256;48.740;9.106;2023-07-31T07:34:51;23.50;95.30
4487;DHT22;2256;48.740;9.106;2023-07-31T07:37:18;23.00;95.50
4487;DHT22;2256;48.740;9.106;2023-07-31T07:39:44;22.60;96.10
4487;DHT22;2256;48.740;9.106;2023-07-31T07:42:12;22.60;95.90
4487;DHT22;2256;48.740;9.106;2023-07-31T07:44:39;23.00;95.40
4487;DHT22;2256;48.740;9.106;2023-07-31T07:47:06;23.50;95.10
4487;DHT22;2256;48.740;9.106;2023-07-31T07:49:33;24.30;94.70
4487;DHT22;2256;48.740;9.106;2023-07-31T07:52:00;24.80;93.90
4487;DHT22;2256;48.740;9.106;2023-07-31T07:54:27;25.20;93.80
4487;DHT22;2256;48.740;9.106;2023-07-31T07:56:54;25.70;93.30
4487;DHT22;2256;48.740;9.106;2023-07-31T07:59:22;26.60;92.80
4487;DHT22;2256;48.740;9.106;2023-07-31T08:01:48;26.80;91.50
4487;DHT22;2256;48.740;9.106;2023-07-31T08:04:15;26.90;91.70
4487;DHT22;2256;48.740;9.106;2023-07-31T08:06:42;27.50;91.00
4487;DHT22;2256;48.740;9.106;2023-07-31T08:09:08;27.70;90.40
4487;DHT22;2256;48.740;9.106;2023-07-31T08:11:35;27.00;90.50
4487;DHT22;2256;48.740;9.106;2023-07-31T08:14:02;26.70;90.30
4487;DHT22;2256;48.740;9.106;2023-07-31T08:16:30;27.00;90.40
4487;DHT22;2256;48.740;9.106;2023-07-31T08:18:57;27.50;89.90
4487;DHT22;2256;48.740;9.106;2023-07-31T08:21:23;27.60;89.40
4487;DHT22;2256;48.740;9.106;2023-07-31T08:23:50;27.60;89.00
4487;DHT22;2256;48.740;9.106;2023-07-31T08:26:18;27.70;88.50
4487;DHT22;2256;48.740;9.106;2023-07-31T08:28:45;27.80;88.30
4487;DHT22;2256;48.740;9.106;2023-07-31T08:31:12;27.80;87.80
4487;DHT22;2256;48.740;9.106;2023-07-31T08:33:40;27.60;87.30
4487;DHT22;2256;48.740;9.106;2023-07-31T08:36:07;27.80;88.60
4487;DHT22;2256;48.740;9.106;2023-07-31T08:38:33;28.20;88.80
4487;DHT22;2256;48.740;9.106;2023-07-31T08:41:00;28.50;87.10
4487;DHT22;2256;48.740;9.106;2023-07-31T08:43:29;28.60;86.10
4487;DHT22;2256;48.740;9.106;2023-07-31T08:45:56;28.20;85.70
4487;DHT22;2256;48.740;9.106;2023-07-31T08:48:23;27.50;86.50
4487;DHT22;2256;48.740;9.106;2023-07-31T08:50:51;26.30;89.30
4487;DHT22;2256;48.740;9.106;2023-07-31T08:53:18;25.70;90.50
4487;DHT22;2256;48.740;9.106;2023-07-31T08:55:46;25.60;90.70
4487;DHT22;2256;48.740;9.106;2023-07-31T08:58:15;25.90;90.80
4487;DHT22;2256;48.740;9.106;2023-07-31T09:00:43;25.50;91.00
4487;DHT22;2256;48.740;9.106;2023-07-31T09:03:14;25.10;91.00
4487;DHT22;2256;48.740;9.106;2023-07-31T09:05:43;25.00;91.60
4487;DHT22;2256;48.740;9.106;2023-07-31T09:08:13;24.80;91.90
4487;DHT22;2256;48.740;9.106;2023-07-31T09:10:41;25.10;91.90
4487;DHT22;2256;48.740;9.106;2023-07-31T09:13:09;25.50;91.60
4487;DHT22;2256;48.740;9.106;2023-07-31T09:15:36;25.40;91.30
4487;DHT22;2256;48.740;9.106;2023-07-31T09:18:04;25.10;91.70
4487;DHT22;2256;48.740;9.106;2023-07-31T09:20:32;24.80;91.70
4487;DHT22;2256;48.740;9.106;2023-07-31T09:23:06;24.10;92.00
4487;DHT22;2256;48.740;9.106;2023-07-31T09:25:35;23.80;92.60
4487;DHT22;2256;48.740;9.106;2023-07-31T09:28:03;23.50;93.10
4487;DHT22;2256;48.740;9.106;2023-07-31T09:30:32;23.40;93.90
4487;DHT22;2256;48.740;9.106;2023-07-31T09:33:09;23.10;93.50
4487;DHT22;2256;48.740;9.106;2023-07-31T09:35:36;23.00;93.90
4487;DHT22;2256;48.740;9.106;2023-07-31T09:38:07;22.80;93.90
4487;DHT22;2256;48.740;9.106;2023-07-31T09:40:37;22.80;94.40
4487;DHT22;2256;48.740;9.106;2023-07-31T09:43:05;22.70;94.00
4487;DHT22;2256;48.740;9.106;2023-07-31T09:45:35;22.80;94.40
4487;DHT22;2256;48.740;9.106;2023-07-31T09:48:02;23.70;94.10
4487;DHT22;2256;48.740;9.106;2023-07-31T09:50:29;25.00;93.00
4487;DHT22;2256;48.740;9.106;2023-07-31T09:52:56;25.80;92.20
4487;DHT22;2256;48.740;9.106;2023-07-31T09:55:24;26.10;91.90
4487;DHT22;2256;48.740;9.106;2023-07-31T09:57:54;26.00;90.80
4487;DHT22;2256;48.740;9.106;2023-07-31T10:00:21;25.90;91.00
4487;DHT22;2256;48.740;9.106;2023-07-31T10:02:51;25.70;91.30
4487;DHT22;2256;48.740;9.106;2023-07-31T10:05:19;25.50;91.90
4487;DHT22;2256;48.740;9.106;2023-07-31T10:07:53;25.70;91.30
4487;DHT22;2256;48.740;9.106;2023-07-31T10:10:21;25.80;91.10
4487;DHT22;2256;48.740;9.106;2023-07-31T10:12:49;25.40;91.50
4487;DHT22;2256;48.740;9.106;2023-07-31T10:15:17;25.50;92.20
4487;DHT22;2256;48.740;9.106;2023-07-31T10:17:45;25.80;92.10
4487;DHT22;2256;48.740;9.106;2023-07-31T10:20:13;26.20;91.10
4487;DHT22;2256;48.740;9.106;2023-07-31T10:22:42;26.20;90.90
4487;DHT22;2256;48.740;9.106;2023-07-31T10:25:09;25.90;90.50
4487;DHT22;2256;48.740;9.106;2023-07-31T10:27:38;25.30;91.40
4487;DHT22;2256;48.740;9.106;2023-07-31T10:30:08;25.10;91.70
4487;DHT22;2256;48.740;9.106;2023-07-31T10:32:38;25.00;91.90
4487;DHT22;2256;48.740;9.106;2023-07-31T10:35:08;25.30;92.10
4487;DHT22;2256;48.740;9.106;2023-07-31T10:37:37;25.60;92.60
4487;DHT22;2256;48.740;9.106;2023-07-31T10:40:06;25.70;91.00
4487;DHT22;2256;48.740;9.106;2023-07-31T10:42:35;25.40;91.30
4487;DHT22;2256;48.740;9.106;2023-07-31T10:45:04;25.20;92.00
4487;DHT22;2256;48.740;9.106;2023-07-31T10:47:31;25.00;91.20
4487;DHT22;2256;48.740;9.106;2023-07-31T10:50:17;25.30;91.50
4487;DHT22;2256;48.740;9.106;2023-07-31T10:52:47;25.60;91.10
4487;DHT22;2256;48.740;9.106;2023-07-31T10:55:16;25.60;91.10
4487;DHT22;2256;48.740;9.106;2023-07-31T10:57:45;25.30;91.50
4487;DHT22;2256;48.740;9.106;2023-07-31T11:00:21;25.40;91.60
4487;DHT22;2256;48.740;9.106;2023-07-31T11:02:59;25.30;91.40
4487;DHT22;2256;48.740;9.106;2023-07-31T11:05:47;25.10;91.80
4487;DHT22;2256;48.740;9.106;2023-07-31T11:08:16;25.00;90.80
4487;DHT22;2256;48.740;9.106;2023-07-31T11:10:44;24.90;91.60
4487;DHT22;2256;48.740;9.106;2023-07-31T11:13:12;25.00;91.80
4487;DHT22;2256;48.740;9.106;2023-07-31T11:15:39;25.20;91.60
4487;DHT22;2256;48.740;9.106;2023-07-31T11:18:05;25.30;91.10
4487;DHT22;2256;48.740;9.106;2023-07-31T11:20:34;25.40;91.10
4487;DHT22;2256;48.740;9.106;2023-07-31T11:23:04;25.50;91.20
4487;DHT22;2256;48.740;9.106;2023-07-31T11:25:32;25.50;91.40
4487;DHT22;2256;48.740;9.106;2023-07-31T11:28:03;25.40;91.10
4487;DHT22;2256;48.740;9.106;2023-07-31T11:30:30;25.10;91.50
4487;DHT22;2256;48.740;9.106;2023-07-31T11:32:57;24.80;91.20
4487;DHT22;2256;48.740;9.106;2023-07-31T11:35:23;24.50;91.70
4487;DHT22;2256;48.740;9.106;2023-07-31T11:37:50;24.30;92.00
4487;DHT22;2256;48.740;9.106;2023-07-31T11:40:18;24.40;92.00
4487;DHT22;2256;48.740;9.106;2023-07-31T11:42:45;24.40;92.20
4487;DHT22;2256;48.740;9.106;2023-07-31T11:45:12;24.60;92.30
4487;DHT22;2256;48.740;9.106;2023-07-31T11:47:39;24.70;91.80
4487;DHT22;2256;48.740;9.106;2023-07-31T11:50:11;24.50;92.20
4487;DHT22;2256;48.740;9.106;2023-07-31T11:52:40;24.50;92.30
4487;DHT22;2256;48.740;9.106;2023-07-31T11:55:08;24.40;92.50
4487;DHT22;2256;48.740;9.106;2023-07-31T11:57:39;24.40;92.70
4487;DHT22;2256;48.740;9.106;2023-07-31T12:00:07;24.40;92.80
4487;DHT22;2256;48.740;9.106;2023-07-31T12:02:36;24.30;92.50
4487;DHT22;2256;48.740;9.106;2023-07-31T12:05:05;24.10;92.70
4487;DHT22;2256;48.740;9.106;2023-07-31T12:07:46;24.10;92.80
4487;DHT22;2256;48.740;9.106;2023-07-31T12:10:26;24.20;92.80
4487;DHT22;2256;48.740;9.106;2023-07-31T12:12:59;24.40;92.60
4487;DHT22;2256;48.740;9.106;2023-07-31T12:15:32;24.50;92.60
4487;DHT22;2256;48.740;9.106;2023-07-31T12:17:59;24.60;92.70
4487;DHT22;2256;48.740;9.106;2023-07-31T12:20:26;24.40;92.30
4487;DHT22;2256;48.740;9.106;2023-07-31T12:22:56;24.30;92.80
4487;DHT22;2256;48.740;9.106;2023-07-31T12:25:28;24.20;92.90
4487;DHT22;2256;48.740;9.106;2023-07-31T12:27:54;24.00;92.60
4487;DHT22;2256;48.740;9.106;2023-07-31T12:30:31;23.80;92.60
4487;DHT22;2256;48.740;9.106;2023-07-31T12:33:02;23.60;92.90
4487;DHT22;2256;48.740;9.106;2023-07-31T12:35:35;23.60;92.90
4487;DHT22;2256;48.740;9.106;2023-07-31T12:38:02;23.50;93.00
4487;DHT22;2256;48.740;9.106;2023-07-31T12:40:29;23.30;93.40
4487;DHT22;2256;48.740;9.106;2023-07-31T12:42:55;23.20;93.30
4487;DHT22;2256;48.740;9.106;2023-07-31T12:45:22;23.00;93.30
4487;DHT22;2256;48.740;9.106;2023-07-31T12:47:50;22.80;93.60
4487;DHT22;2256;48.740;9.106;2023-07-31T12:50:17;22.70;93.70
4487;DHT22;2256;48.740;9.106;2023-07-31T12:52:44;22.70;93.70
4487;DHT22;2256;48.740;9.106;2023-07-31T12:55:10;22.80;94.10
4487;DHT22;2256;48.740;9.106;2023-07-31T12:57:37;23.00;94.20
4487;DHT22;2256;48.740;9.106;2023-07-31T13:00:05;23.30;94.00
4487;DHT22;2256;48.740;9.106;2023-07-31T13:02:32;23.60;93.70
4487;DHT22;2256;48.740;9.106;2023-07-31T13:05:00;23.90;93.50
4487;DHT22;2256;48.740;9.106;2023-07-31T13:07:26;24.20;93.60
4487;DHT22;2256;48.740;9.106;2023-07-31T13:09:53;24.40;93.00
4487;DHT22;2256;48.740;9.106;2023-07-31T13:12:20;24.70;93.00
4487;DHT22;2256;48.740;9.106;2023-07-31T13:14:46;24.90;92.80
4487;DHT22;2256;48.740;9.106;2023-07-31T13:17:13;25.00;92.10
4487;DHT22;2256;48.740;9.106;2023-07-31T13:19:40;25.20;92.10
4487;DHT22;2256;48.740;9.106;2023-07-31T13:22:08;25.30;91.90
4487;DHT22;2256;48.740;9.106;2023-07-31T13:24:35;25.30;92.20
4487;DHT22;2256;48.740;9.106;2023-07-31T13:27:01;25.50;92.10
4487;DHT22;2256;48.740;9.106;2023-07-31T13:29:29;25.50;92.30
4487;DHT22;2256;48.740;9.106;2023-07-31T13:31:57;25.60;92.40
4487;DHT22;2256;48.740;9.106;2023-07-31T13:34:24;25.50;91.90
4487;DHT22;2256;48.740;9.106;2023-07-31T13:36:51;25.40;92.20
4487;DHT22;2256;48.740;9.106;2023-07-31T13:39:19;25.20;92.20
4487;DHT22;2256;48.740;9.106;2023-07-31T13:41:46;24.90;92.50
4487;DHT22;2256;48.740;9.106;2023-07-31T13:44:12;24.80;93.60
4487;DHT22;2256;48.740;9.106;2023-07-31T13:46:39;24.70;93.40
4487;DHT22;2256;48.740;9.106;2023-07-31T13:49:06;24.70;93.10
4487;DHT22;2256;48.740;9.106;2023-07-31T13:51:32;24.70;93.10
4487;DHT22;2256;48.740;9.106;2023-07-31T13:53:59;24.70;93.00
4487;DHT22;2256;48.740;9.106;2023-07-31T13:56:27;24.80;93.20
4487;DHT22;2256;48.740;9.106;2023-07-31T13:58:54;24.80;93.20
4487;DHT22;2256;48.740;9.106;2023-07-31T14:01:21;24.70;93.30
4487;DHT22;2256;48.740;9.106;2023-07-31T14:03:47;24.70;93.50
4487;DHT22;2256;48.740;9.106;2023-07-31T14:06:14;24.70;93.90
4487;DHT22;2256;48.740;9.106;2023-07-31T14:08:41;24.70;93.60
4487;DHT22;2256;48.740;9.106;2023-07-31T14:11:07;24.60;93.50
4487;DHT22;2256;48.740;9.106;2023-07-31T14:13:35;24.60;93.70
4487;DHT22;2256;48.740;9.106;2023-07-31T14:16:02;24.70;93.80
4487;DHT22;2256;48.740;9.106;2023-07-31T14:18:29;24.60;93.40
4487;DHT22;2256;48.740;9.106;2023-07-31T14:20:56;24.50;93.60
4487;DHT22;2256;48.740;9.106;2023-07-31T14:23:22;24.50;94.10
4487;DHT22;2256;48.740;9.106;2023-07-31T14:25:49;24.50;94.20
4487;DHT22;2256;48.740;9.106;2023-07-31T14:28:16;24.50;94.20
4487;DHT22;2256;48.740;9.106;2023-07-31T14:30:44;24.50;93.50
4487;DHT22;2256;48.740;9.106;2023-07-31T14:33:10;24.50;93.70
4487;DHT22;2256;48.740;9.106;2023-07-31T14:35:37;24.60;93.40
4487;DHT22;2256;48.740;9.106;2023-07-31T14:38:04;24.50;93.70
4487;DHT22;2256;48.740;9.106;2023-07-31T14:40:30;24.50;93.30
4487;DHT22;2256;48.740;9.106;2023-07-31T14:42:57;24.40;93.30
4487;DHT22;2256;48.740;9.106;2023-07-31T14:45:24;24.60;92.20
4487;DHT22;2256;48.740;9.106;2023-07-31T14:47:52;24.60;93.00
4487;DHT22;2256;48.740;9.106;2023-07-31T14:50:20;24.80;92.70
4487;DHT22;2256;48.740;9.106;2023-07-31T14:52:47;25.00;92.80
4487;DHT22;2256;48.740;9.106;2023-07-31T14:55:14;25.30;93.20
4487;DHT22;2256;48.740;9.106;2023-07-31T14:57:40;25.30;92.30
4487;DHT22;2256;48.740;9.106;2023-07-31T15:00:08;25.30;91.80
4487;DHT22;2256;48.740;9.106;2023-07-31T15:02:35;25.30;91.90
4487;DHT22;2256;48.740;9.106;2023-07-31T15:05:05;25.30;91.90
4487;DHT22;2256;48.740;9.106;2023-07-31T15:07:31;25.30;92.00
4487;DHT22;2256;48.740;9.106;2023-07-31T15:09:58;25.20;92.00
4487;DHT22;2256;48.740;9.106;2023-07-31T15:12:25;25.00;92.00
4487;DHT22;2256;48.740;9.106;2023-07-31T15:14:53;24.80;92.30
4487;DHT22;2256;48.740;9.106;2023-07-31T15:17:20;24.60;92.80
4487;DHT22;2256;48.740;9.106;2023-07-31T15:19:47;24.60;93.00
4487;DHT22;2256;48.740;9.106;2023-07-31T15:22:15;24.60;92.60
4487;DHT22;2256;48.740;9.106;2023-07-31T15:24:42;24.50;92.60
4487;DHT22;2256;48.740;9.106;2023-07-31T15:27:08;24.40;92.50
4487;DHT22;2256;48.740;9.106;2023-07-31T15:29:35;24.30;92.80
4487;DHT22;2256;48.740;9.106;2023-07-31T15:32:03;24.40;92.80
4487;DHT22;2256;48.740;9.106;2023-07-31T15:34:31;24.50;93.40
4487;DHT22;2256;48.740;9.106;2023-07-31T15:36:58;24.70;92.80
4487;DHT22;2256;48.740;9.106;2023-07-31T15:39:26;24.80;92.90
4487;DHT22;2256;48.740;9.106;2023-07-31T15:41:53;24.80;92.80
4487;DHT22;2256;48.740;9.106;2023-07-31T15:44:20;24.70;92.40
4487;DHT22;2256;48.740;9.106;2023-07-31T15:46:47;24.70;93.10
4487;DHT22;2256;48.740;9.106;2023-07-31T15:49:14;24.80;93.00
4487;DHT22;2256;48.740;9.106;2023-07-31T15:51:41;24.80;92.40
4487;DHT22;2256;48.740;9.106;2023-07-31T15:54:07;24.90;93.00
4487;DHT22;2256;48.740;9.106;2023-07-31T15:56:35;25.00;93.30
4487;DHT22;2256;48.740;9.106;2023-07-31T15:59:02;25.00;92.90
4487;DHT22;2256;48.740;9.106;2023-07-31T16:01:29;25.00;92.70
4487;DHT22;2256;48.740;9.106;2023-07-31T16:03:56;25.00;92.50